Terminal Aerodrome Forecast
Issued by NWS Cleveland, OH

Home | Current Version | Previous Version | Text Only | Print | Product List | Glossary Off
Versions: 1 2 3 4 5 6 7 8 9 10 11 12 13 14 15 16 17 18

000
FTUS41 KCLE 280536
TAFYNG
TAF
KYNG 280536Z 2806/2906 18010KT P6SM OVC015
      TEMPO 2806/2808 4SM -SHRA BR OVC008
     FM280800 18006KT 4SM -RA BR OVC006
     FM281500 30011G16KT 5SM -RA BR OVC010
     FM282200 32012KT P6SM VCSH OVC012
     FM290000 28005KT P6SM OVC015=

USA.gov is the U.S. government's official web portal to all federal, state and local government web resources and services.